< < Back
Terminal Aerodrome Forecast


Current Version              Previous Versions:   1  2  3  4  5  6  7  8  9  

Terminal Aerodrome Forecast

694
FTUS42 KCHS 282300
TAFCHS
TAF
KCHS 282325Z 2900/2924 19008KT P6SM SKC
     FM290200 VRB04KT P6SM SKC
     FM291900 16010KT P6SM SCT050=



Latest METAR

376
SAUS80 KWBC 290800 RRB
MTRCHS
METAR KCHS 290756Z 00000KT 10SM CLR 21/19 A3003 RMK AO2 SLP168
T02110194


USA.gov is the U.S. government's official web portal to all federal, state and local government web resources and services.